Terminal Aerodrome Forecast
Issued by NWS

Home | Current Version | Previous Version | Graphics & Text | Print | Product List | Glossary On
Versions: 1 2 3 4 5 6 7 8 9 10 11 12 13 14 15 16 17 18 19 20 21 22 23 24 25 26 27 28 29 30 31 32 33
000
FTUS45 KGGW 272300
TAFOLF
TAF
KOLF 272324Z 2800/2824 04011KT P6SM VCTS BKN060CB
      TEMPO 2800/2804 30022G33KT 4SM TSRA OVC030CB
     FM280400 25020G30KT 4SM TSRA OVC025CB
     FM280700 27020G30KT 6SM -RA OVC015
     FM281600 28033G50KT 6SM -RA OVC007=

USA.gov is the U.S. government's official web portal to all federal, state and local government web resources and services.